createdAt,value
2018-10-01T00:04:29.375Z,58.84
2018-10-01T00:09:32.704Z,59.32
2018-10-01T00:14:36.212Z,59.95
2018-10-01T00:19:44.840Z,59.81
2018-10-01T00:24:48.193Z,60.01
2018-10-01T00:29:52.005Z,59.75
2018-10-01T00:34:56.066Z,59.65
2018-10-01T00:39:59.462Z,60.05
2018-10-01T00:45:02.941Z,60.16
2018-10-01T00:50:06.364Z,60.21
2018-10-01T00:55:09.745Z,60.26
2018-10-01T01:00:13.204Z,60.44
2018-10-01T01:05:16.512Z,60.81
2018-10-01T01:10:19.873Z,60.67
2018-10-01T01:15:23.172Z,60.68
2018-10-01T01:20:26.504Z,60.36
2018-10-01T01:25:29.829Z,60.94
2018-10-01T01:30:33.143Z,60.87
2018-10-01T01:35:36.490Z,61.03
2018-10-01T01:40:39.785Z,60.51
2018-10-01T01:45:43.094Z,61.50
2018-10-01T01:50:46.396Z,61.43
2018-10-01T01:55:49.725Z,61.36
2018-10-01T02:00:53.045Z,61.36
2018-10-01T02:05:56.388Z,61.61
2018-10-01T02:10:59.706Z,62.25
2018-10-01T02:16:03.097Z,62.06
2018-10-01T02:21:06.457Z,63.12
2018-10-01T02:26:09.768Z,63.39
2018-10-01T02:31:13.074Z,63.48
2018-10-01T02:36:16.407Z,63.49
2018-10-01T02:41:19.760Z,64.05
2018-10-01T02:46:23.099Z,64.21
2018-10-01T02:51:26.418Z,64.49
2018-10-01T02:56:29.732Z,64.85
2018-10-01T03:01:33.084Z,65.35
2018-10-01T03:06:36.405Z,65.05
2018-10-01T03:11:39.892Z,65.25
2018-10-01T03:16:43.260Z,65.77
2018-10-01T03:21:46.569Z,66.15
2018-10-01T03:26:49.891Z,66.17
2018-10-01T03:31:53.204Z,65.73
2018-10-01T03:36:56.601Z,65.63
2018-10-01T03:41:59.928Z,65.58
2018-10-01T03:47:03.255Z,65.33
2018-10-01T03:52:06.573Z,64.95
2018-10-01T03:57:10.200Z,64.87
2018-10-01T04:02:13.490Z,64.82
2018-10-01T04:07:16.806Z,65.23
2018-10-01T04:12:20.126Z,65.54
2018-10-01T04:17:23.449Z,65.77
2018-10-01T04:22:32.160Z,65.68
2018-10-01T04:27:35.900Z,65.34
2018-10-01T04:32:39.246Z,65.03
2018-10-01T04:37:42.571Z,64.81
2018-10-01T04:42:45.917Z,65.00
2018-10-01T04:47:49.227Z,65.14
2018-10-01T04:52:52.540Z,64.71
2018-10-01T04:57:55.852Z,64.87
2018-10-01T05:02:59.164Z,64.81
2018-10-01T05:08:02.469Z,64.90
2018-10-01T05:13:05.782Z,64.34
2018-10-01T05:18:09.111Z,64.38
2018-10-01T05:23:12.424Z,64.56
2018-10-01T05:28:15.861Z,64.52
2018-10-01T05:33:19.195Z,64.04
2018-10-01T05:38:22.508Z,64.49
2018-10-01T05:43:25.852Z,64.41
2018-10-01T05:48:29.159Z,64.44
2018-10-01T05:53:33.335Z,64.57
2018-10-01T05:58:36.660Z,64.40
2018-10-01T06:03:39.980Z,64.26
2018-10-01T06:08:43.344Z,64.24
2018-10-01T06:13:46.633Z,63.79
2018-10-01T06:18:49.936Z,64.08
2018-10-01T06:23:53.248Z,64.31
2018-10-01T06:28:56.544Z,64.04
2018-10-01T06:33:59.816Z,64.03
2018-10-01T06:39:03.113Z,63.21
2018-10-01T06:44:06.416Z,63.67
2018-10-01T06:49:09.693Z,62.50
2018-10-01T06:54:12.977Z,62.36
2018-10-01T06:59:16.279Z,62.97
2018-10-01T07:04:19.562Z,62.92
2018-10-01T07:09:22.841Z,63.26
2018-10-01T07:14:26.113Z,62.58
2018-10-01T07:19:29.414Z,62.36
2018-10-01T07:24:32.704Z,60.89
2018-10-01T07:29:35.984Z,61.00
2018-10-01T07:34:39.332Z,60.51
2018-10-01T07:39:42.617Z,60.26
2018-10-01T07:44:45.969Z,59.80
2018-10-01T07:49:49.208Z,59.24
2018-10-01T07:54:52.497Z,57.50
2018-10-01T07:59:55.952Z,57.37
2018-10-01T08:04:59.125Z,56.41
2018-10-01T08:10:02.415Z,57.17
2018-10-01T08:15:06.076Z,57.07
2018-10-01T08:20:09.456Z,56.59
2018-10-01T08:25:12.709Z,56.08
2018-10-01T08:30:16.005Z,55.98
2018-10-01T08:35:19.286Z,55.41
2018-10-01T08:40:22.589Z,55.99
2018-10-01T08:45:25.875Z,55.46
2018-10-01T08:50:34.615Z,56.16
2018-10-01T08:55:37.897Z,55.39
2018-10-01T09:00:41.187Z,55.71
2018-10-01T09:05:44.456Z,56.08
2018-10-01T09:10:47.742Z,56.65
2018-10-01T09:15:51.029Z,57.59
2018-10-01T09:20:54.332Z,57.09
2018-10-01T09:25:57.667Z,57.54
2018-10-01T09:31:01.033Z,58.54
2018-10-01T09:36:04.288Z,58.39
2018-10-01T09:41:07.596Z,58.59
2018-10-01T09:46:10.991Z,58.28
2018-10-01T09:51:14.296Z,58.75
2018-10-01T09:56:17.641Z,58.67
2018-10-01T10:01:20.911Z,58.37
2018-10-01T10:06:24.213Z,58.59
2018-10-01T10:11:27.535Z,58.33
2018-10-01T10:16:30.858Z,57.23
2018-10-01T10:21:34.100Z,56.82
2018-10-01T10:26:37.465Z,57.04
2018-10-01T10:31:40.703Z,55.96
2018-10-01T10:36:43.980Z,55.30
2018-10-01T10:41:47.609Z,55.80
2018-10-01T10:46:50.808Z,55.40
2018-10-01T10:51:55.148Z,54.15
2018-10-01T10:56:58.469Z,55.03
2018-10-01T11:02:02.259Z,55.33
2018-10-01T11:07:05.585Z,59.78
2018-10-01T11:12:08.901Z,65.73
2018-10-01T11:17:12.184Z,67.33
2018-10-01T11:22:15.486Z,67.08
2018-10-01T11:27:18.928Z,66.60
2018-10-01T11:32:22.096Z,66.88
2018-10-01T11:37:25.380Z,66.67
2018-10-01T11:42:28.692Z,66.94
2018-10-01T11:47:31.975Z,67.88
2018-10-01T11:52:35.251Z,69.54
2018-10-01T11:57:38.594Z,70.44
2018-10-01T12:02:41.865Z,70.08
2018-10-01T12:07:45.349Z,70.52
2018-10-01T12:12:48.672Z,69.36
2018-10-01T12:17:51.944Z,69.31
2018-10-01T12:22:55.220Z,67.53
2018-10-01T12:27:58.497Z,66.55
2018-10-01T12:33:01.799Z,66.31
2018-10-01T12:38:05.082Z,65.57
2018-10-01T12:43:08.388Z,65.50
2018-10-01T12:48:11.686Z,67.56
2018-10-01T12:53:15.143Z,66.94
2018-10-01T12:58:18.453Z,66.62
2018-10-01T13:03:28.100Z,65.35
2018-10-01T13:08:31.403Z,66.43
2018-10-01T13:13:34.688Z,66.57
2018-10-01T13:18:38.078Z,65.31
2018-10-01T13:23:41.353Z,65.16
2018-10-01T13:28:44.641Z,65.15
2018-10-01T13:33:47.924Z,65.27
2018-10-01T13:38:51.422Z,65.20
2018-10-01T13:43:54.798Z,63.43
2018-10-01T13:48:58.114Z,64.17
2018-10-01T13:54:01.590Z,64.13
2018-10-01T13:59:04.932Z,63.91
2018-10-01T14:04:08.789Z,63.42
2018-10-01T14:09:12.585Z,64.01
2018-10-01T14:14:15.888Z,65.31
2018-10-01T14:19:19.380Z,67.24
2018-10-01T14:24:22.549Z,67.97
2018-10-01T14:29:25.901Z,69.53
2018-10-01T14:34:29.240Z,69.34
2018-10-01T14:39:32.596Z,69.29
2018-10-01T14:44:35.852Z,69.76
2018-10-01T14:49:39.164Z,69.51
2018-10-01T14:54:43.101Z,68.37
2018-10-01T14:59:46.408Z,67.99
2018-10-01T15:04:49.782Z,67.93
2018-10-01T15:09:53.056Z,69.14
2018-10-01T15:14:56.343Z,69.45
2018-10-01T15:19:59.729Z,69.12
2018-10-01T15:25:03.906Z,68.46
2018-10-01T15:30:07.445Z,66.47
2018-10-01T15:35:10.744Z,66.70
2018-10-01T15:40:14.231Z,65.02
2018-10-01T15:45:17.543Z,62.78
2018-10-01T15:50:20.832Z,61.87
2018-10-01T15:55:24.117Z,61.54
2018-10-01T16:00:27.425Z,61.65
2018-10-01T16:05:30.787Z,62.23
2018-10-01T16:10:34.111Z,61.33
2018-10-01T16:15:37.425Z,61.73
2018-10-01T16:20:40.704Z,62.00
2018-10-01T16:25:44.022Z,62.64
2018-10-01T16:30:47.312Z,63.47
2018-10-01T16:35:50.621Z,64.40
2018-10-01T16:40:53.949Z,64.70
2018-10-01T16:45:57.591Z,65.48
2018-10-01T16:51:00.905Z,65.70
2018-10-01T16:56:04.339Z,66.42
2018-10-01T17:01:07.711Z,66.09
2018-10-01T17:06:11.023Z,66.46
2018-10-01T17:11:14.324Z,65.10
2018-10-01T17:16:17.631Z,62.92
2018-10-01T17:21:20.997Z,61.47
2018-10-01T17:26:24.343Z,61.76
2018-10-01T17:31:27.642Z,61.18
2018-10-01T17:36:31.001Z,61.90
2018-10-01T17:41:34.311Z,61.87
2018-10-01T17:46:37.638Z,62.14
2018-10-01T17:51:41.555Z,62.50
2018-10-01T17:56:44.880Z,63.15
2018-10-01T18:01:48.163Z,64.91
2018-10-01T18:06:51.473Z,67.00
2018-10-01T18:11:54.944Z,66.98
2018-10-01T18:16:58.464Z,65.76
2018-10-01T18:22:01.926Z,64.31
2018-10-01T18:27:05.437Z,64.03
2018-10-01T18:32:08.957Z,63.94
2018-10-01T18:37:12.409Z,64.93
2018-10-01T18:42:15.742Z,64.55
2018-10-01T18:47:19.178Z,64.48
2018-10-01T18:52:22.471Z,64.32
2018-10-01T18:57:25.877Z,64.85
2018-10-01T19:02:29.241Z,64.78
2018-10-01T19:07:32.728Z,65.12
2018-10-01T19:12:36.049Z,65.49
2018-10-01T19:17:39.414Z,66.35
2018-10-01T19:22:42.804Z,67.25
2018-10-01T19:27:46.104Z,68.00
2018-10-01T19:32:49.405Z,68.41
2018-10-01T19:37:52.796Z,68.52
2018-10-01T19:42:56.121Z,67.77
2018-10-01T19:47:59.453Z,68.55
2018-10-01T19:53:02.826Z,69.44
2018-10-01T19:58:06.189Z,70.45
2018-10-01T20:03:09.553Z,69.95
2018-10-01T20:08:12.872Z,69.66
2018-10-01T20:13:16.221Z,68.69
2018-10-01T20:18:19.586Z,69.30
2018-10-01T20:23:23.155Z,68.76
2018-10-01T20:28:26.679Z,65.90
2018-10-01T20:33:29.935Z,66.31
2018-10-01T20:38:33.261Z,66.07
2018-10-01T20:43:36.576Z,65.62
2018-10-01T20:48:39.980Z,64.76
2018-10-01T20:53:43.396Z,64.65
2018-10-01T20:58:46.690Z,65.03
2018-10-01T21:03:49.968Z,65.93
2018-10-01T21:08:53.296Z,66.83
2018-10-01T21:13:56.611Z,67.62
2018-10-01T21:18:59.960Z,68.32
2018-10-01T21:24:03.388Z,68.21
2018-10-01T21:29:06.812Z,68.70
2018-10-01T21:34:10.200Z,68.07
2018-10-01T21:39:23.230Z,67.76
2018-10-01T21:44:26.564Z,68.69
2018-10-01T21:49:29.888Z,68.77
2018-10-01T21:54:33.217Z,69.85
2018-10-01T21:59:36.540Z,70.10
2018-10-01T22:04:39.868Z,69.50
2018-10-01T22:09:43.182Z,69.08
2018-10-01T22:14:46.490Z,69.46
2018-10-01T22:19:49.809Z,69.22
2018-10-01T22:24:53.204Z,69.70
2018-10-01T22:29:56.576Z,70.18
2018-10-01T22:34:59.933Z,70.42
2018-10-01T22:40:03.513Z,70.22
2018-10-01T22:45:07.041Z,70.52
2018-10-01T22:50:10.393Z,70.86
2018-10-01T22:55:13.877Z,70.70
2018-10-01T23:00:17.196Z,70.96
2018-10-01T23:05:20.512Z,70.90
2018-10-01T23:10:23.812Z,70.80
2018-10-01T23:15:27.119Z,71.06
2018-10-01T23:20:30.414Z,71.81
2018-10-01T23:25:33.712Z,71.79
2018-10-01T23:30:37.040Z,72.18
2018-10-01T23:35:40.383Z,72.47
2018-10-01T23:40:43.919Z,72.69
2018-10-01T23:45:47.235Z,72.23
2018-10-01T23:50:50.531Z,72.42
2018-10-01T23:55:53.829Z,72.33
